»·PEaware :: WAT203 KLAS-KPHX

WAT203 :: KLAS-KPHX

FLIGHT INFORMATION

Flight Status: Arrived
Operator: Unknown
More flights by this operator :: More flights under this callsign
Pilot: Zachary C. (8151)
Aircraft: AIRBUS A319
(A319)
More flights by this aircraft type
Origin: KLAS McCarran Intl
United States
Destination: KPHX Phoenix Sky Harbor Intl
United States
More flights between these airports :: More routes between these airports
Route: PRFUM4 PRFUM WOTRO BRUSR1
File this flight plan on PilotEdge
Remarks: RMK / SIMBRIEF
Altitude:
(Current/Filed)
29,000ft
Speed:
(Current/Filed)
449kts
Departed: 18-May-20 05:54 PM
Arrived: 18-May-20 06:42 PM
Distance/Time
Traveled:
222nm/0:47
Distance/Time
To Go:
Arrived

Flight Plot

Page will automatically refresh every two minutes.


Map Options




Map Legend


Flown Route
Filed Route
Departure Airport
Arrival Airport
Navaid (VOR, NDB)
Fix

Horizontal Profiles

Position Reports

Time Latitude Longitude Heading Altitude Ground
Speed
18-May-20 16:45 36.080235 -115.147306 56 2190ft 0kts
18-May-20 16:46 36.080235 -115.147306 56 2190ft 0kts
18-May-20 16:47 36.080235 -115.147306 56 2190ft 0kts
18-May-20 16:48 36.080235 -115.147306 56 2190ft 0kts
18-May-20 16:49 36.080235 -115.147306 56 2190ft 0kts
18-May-20 16:50 36.080235 -115.147306 56 2190ft 0kts
18-May-20 16:51 36.080235 -115.147306 56 2190ft 0kts
18-May-20 16:52 36.080235 -115.147306 56 2190ft 0kts
18-May-20 16:53 36.080235 -115.147306 56 2190ft 0kts
18-May-20 16:54 36.080235 -115.147306 56 2190ft 0kts
18-May-20 16:55 36.080235 -115.147306 56 2190ft 0kts
18-May-20 16:56 36.080235 -115.147306 56 2190ft 0kts
18-May-20 16:57 36.080235 -115.147306 56 2190ft 0kts
18-May-20 16:58 36.080235 -115.147306 56 2190ft 0kts
18-May-20 16:59 36.080235 -115.147306 56 2190ft 0kts
18-May-20 17:00 36.080235 -115.147306 56 2190ft 0kts
18-May-20 17:01 36.080235 -115.147306 56 2190ft 0kts
18-May-20 17:02 36.080235 -115.147306 56 2190ft 0kts
18-May-20 17:03 36.080235 -115.147306 56 2190ft 0kts
18-May-20 17:04 36.080235 -115.147306 56 2190ft 0kts
18-May-20 17:05 36.080235 -115.147306 56 2190ft 0kts
18-May-20 17:06 36.080235 -115.147306 56 2190ft 0kts
18-May-20 17:07 36.080235 -115.147306 56 2190ft 0kts
18-May-20 17:08 36.080235 -115.147306 56 2190ft 0kts
18-May-20 17:09 36.080235 -115.147306 56 2190ft 0kts
18-May-20 17:10 36.080235 -115.147306 56 2190ft 0kts
18-May-20 17:11 36.080235 -115.147306 56 2190ft 0kts
18-May-20 17:12 36.080235 -115.147306 56 2190ft 0kts
18-May-20 17:13 36.080235 -115.147306 56 2190ft 0kts
18-May-20 17:14 36.080235 -115.147306 56 2190ft 0kts
18-May-20 17:15 36.080235 -115.147306 56 2190ft 0kts
18-May-20 17:16 36.080235 -115.147306 56 2190ft 0kts
18-May-20 17:17 36.080235 -115.147306 56 2190ft 0kts
18-May-20 17:18 36.080235 -115.147306 56 2190ft 0kts
18-May-20 17:19 36.080235 -115.147306 56 2190ft 0kts
18-May-20 17:20 36.080235 -115.147306 56 2190ft 0kts
18-May-20 17:21 36.080235 -115.147306 56 2190ft 0kts
18-May-20 17:22 36.080235 -115.147306 56 2190ft 0kts
18-May-20 17:23 36.080235 -115.147306 56 2190ft 0kts
18-May-20 17:24 36.080235 -115.147306 56 2190ft 0kts
18-May-20 17:25 36.080235 -115.147306 56 2190ft 0kts
18-May-20 17:27 36.080235 -115.147306 56 2190ft 0kts
18-May-20 17:28 36.080235 -115.147306 56 2190ft 0kts
18-May-20 17:29 36.080235 -115.147306 56 2190ft 0kts
18-May-20 17:30 36.080235 -115.147306 56 2190ft 0kts
18-May-20 17:31 36.080235 -115.147306 56 2190ft 0kts
18-May-20 17:32 36.080159 -115.147711 100 2190ft 2kts
18-May-20 17:33 36.080553 -115.148221 154 2190ft 2kts
18-May-20 17:34 36.080994 -115.148472 155 2190ft 0kts
18-May-20 17:35 36.080994 -115.148472 155 2190ft 0kts
18-May-20 17:36 36.080994 -115.148472 155 2190ft 0kts
18-May-20 17:37 36.080994 -115.148472 155 2190ft 0kts
18-May-20 17:38 36.080781 -115.148352 155 2190ft 0kts
18-May-20 17:39 36.080073 -115.147959 155 2190ft 17kts
18-May-20 17:40 36.078321 -115.144338 94 2190ft 18kts
18-May-20 17:41 36.078266 -115.138011 90 2190ft 16kts
18-May-20 17:42 36.078272 -115.130829 90 2190ft 27kts
18-May-20 17:42 36.078273 -115.124950 90 2190ft 15kts
18-May-20 17:44 36.078272 -115.122866 94 2190ft 0kts
18-May-20 17:45 36.077828 -115.122026 128 2190ft 0kts
18-May-20 17:45 36.077790 -115.121967 128 2190ft 0kts
18-May-20 17:46 36.077703 -115.121832 128 2190ft 0kts
18-May-20 17:47 36.077698 -115.121824 128 2190ft 0kts
18-May-20 17:48 36.077392 -115.121391 150 2190ft 0kts
18-May-20 17:49 36.077392 -115.121391 150 2190ft 0kts
18-May-20 17:50 36.077392 -115.121391 150 2190ft 0kts
18-May-20 17:51 36.077392 -115.121391 150 2190ft 0kts
18-May-20 17:52 36.076387 -115.122771 269 2190ft 29kts
18-May-20 17:53 36.080233 -115.167778 286 3364ft 174kts
18-May-20 17:54 36.077375 -115.228509 260 5345ft 207kts
18-May-20 17:55 36.029944 -115.274834 200 7023ft 265kts
18-May-20 17:56 35.958690 -115.296794 170 7126ft 282kts
18-May-20 17:57 35.884517 -115.267667 154 10545ft 290kts
18-May-20 17:58 35.843594 -115.168544 109 12082ft 369kts
18-May-20 17:59 35.824095 -115.038345 92 14564ft 407kts
18-May-20 18:00 35.834554 -114.897079 90 17217ft 423kts
18-May-20 18:01 35.845884 -114.744411 90 18408ft 467kts
18-May-20 18:02 35.844206 -114.583930 115 20522ft 459kts
18-May-20 18:03 35.779297 -114.452962 129 22445ft 461kts
18-May-20 18:04 35.707421 -114.318275 129 24010ft 475kts
18-May-20 18:05 35.633764 -114.179807 129 25654ft 478kts
18-May-20 18:06 35.560992 -114.043886 130 27406ft 473kts
18-May-20 18:07 35.488739 -113.909584 130 28932ft 470kts
18-May-20 18:08 35.416232 -113.775413 130 28974ft 470kts
18-May-20 18:09 35.343790 -113.641808 130 28975ft 469kts
18-May-20 18:10 35.271373 -113.508739 130 28975ft 470kts
18-May-20 18:11 35.198773 -113.375805 130 28975ft 469kts
18-May-20 18:12 35.126459 -113.243106 131 28976ft 469kts
18-May-20 18:13 35.053805 -113.110403 131 29021ft 469kts
18-May-20 18:14 34.980614 -112.978280 130 29085ft 472kts
18-May-20 18:15 34.906786 -112.845462 128 29109ft 476kts
18-May-20 18:16 34.830222 -112.708653 128 29100ft 477kts
18-May-20 18:17 34.755221 -112.574507 128 26982ft 464kts
18-May-20 18:18 34.676780 -112.456345 141 24449ft 438kts
18-May-20 18:19 34.582793 -112.363570 144 22307ft 433kts
18-May-20 18:20 34.488578 -112.271374 144 21247ft 427kts
18-May-20 18:21 34.389086 -112.214905 170 19919ft 378kts
18-May-20 18:22 34.291599 -112.190175 170 18259ft 339kts
18-May-20 18:23 34.201672 -112.167055 170 16704ft 322kts
18-May-20 18:24 34.116348 -112.145063 170 15391ft 300kts
18-May-20 18:25 34.039422 -112.118205 164 14337ft 283kts
18-May-20 18:26 33.966119 -112.088389 164 12999ft 275kts
18-May-20 18:27 33.895122 -112.059571 164 11716ft 267kts
18-May-20 18:28 33.824633 -112.031037 164 10425ft 264kts
18-May-20 18:29 33.755400 -112.002995 164 9161ft 261kts
18-May-20 18:30 33.683215 -111.973831 164 9049ft 266kts
18-May-20 18:31 33.617197 -111.947148 164 8239ft 244kts
18-May-20 18:32 33.553371 -111.921376 164 7157ft 236kts
18-May-20 18:33 33.526980 -111.854909 93 6988ft 250kts
18-May-20 18:34 33.527634 -111.771156 99 5663ft 250kts
18-May-20 18:35 33.475225 -111.730528 179 4071ft 229kts
18-May-20 18:36 33.437284 -111.768669 274 4077ft 220kts
18-May-20 18:37 33.440813 -111.841209 266 3604ft 217kts
18-May-20 18:38 33.440877 -111.906147 268 2563ft 157kts
18-May-20 18:39 33.440822 -111.954181 270 1809ft 141kts
18-May-20 18:40 33.440812 -112.000564 271 1144ft 124kts
18-May-20 18:41 33.440069 -112.013606 165 1143ft 0kts
18-May-20 18:42 33.440069 -112.013606 165 1143ft 0kts
18-May-20 18:43 33.439720 -112.012997 91 1143ft 1kts
18-May-20 18:44 33.439718 -112.004375 91 1143ft 15kts
18-May-20 18:45 33.438036 -112.002591 115 1143ft 2kts
18-May-20 18:46 33.437986 -112.002463 114 1143ft 0kts

Navigation Log

Ident Type
Flight plan parsing failed, navigation log unavailable